createdAt,value
2018-07-20T00:01:06.410Z,95.70
2018-07-20T00:03:35.957Z,96.10
2018-07-20T00:06:05.683Z,96.40
2018-07-20T00:08:34.491Z,96.40
2018-07-20T00:11:04.062Z,96.80
2018-07-20T00:13:33.158Z,97.50
2018-07-20T00:16:01.998Z,98.00
2018-07-20T00:18:30.795Z,97.90
2018-07-20T00:20:59.622Z,98.20
2018-07-20T00:23:28.454Z,98.90
2018-07-20T00:25:58.257Z,98.40
2018-07-20T00:28:27.371Z,99.00
2018-07-20T00:30:56.242Z,99.20
2018-07-20T00:33:25.278Z,99.90
2018-07-20T00:35:54.059Z,99.90
2018-07-20T00:38:22.896Z,99.90
2018-07-20T00:40:51.893Z,99.90
2018-07-20T00:43:21.562Z,99.90
2018-07-20T00:45:50.391Z,99.90
2018-07-20T00:48:19.673Z,99.90
2018-07-20T00:50:48.514Z,99.90
2018-07-20T00:53:17.319Z,99.90
2018-07-20T00:55:46.779Z,99.90
2018-07-20T00:58:16.130Z,99.90
2018-07-20T01:00:44.966Z,99.90
2018-07-20T01:03:13.750Z,99.90
2018-07-20T01:05:42.539Z,99.90
2018-07-20T01:08:11.349Z,99.90
2018-07-20T01:10:41.569Z,99.90
2018-07-20T01:13:10.351Z,99.90
2018-07-20T01:15:39.957Z,99.90
2018-07-20T01:18:08.788Z,99.90
2018-07-20T01:20:37.577Z,99.90
2018-07-20T01:23:06.952Z,99.90
2018-07-20T01:25:36.750Z,99.90
2018-07-20T01:28:07.361Z,99.90
2018-07-20T01:30:37.066Z,99.90
2018-07-20T01:33:09.054Z,99.90
2018-07-20T01:35:39.619Z,99.90
2018-07-20T01:38:09.474Z,99.90
2018-07-20T01:40:39.624Z,99.90
2018-07-20T01:43:09.075Z,99.90
2018-07-20T01:45:37.902Z,99.90
2018-07-20T01:48:06.925Z,99.90
2018-07-20T01:50:36.659Z,99.90
2018-07-20T01:53:05.457Z,99.90
2018-07-20T01:55:34.390Z,99.90
2018-07-20T01:58:04.260Z,99.90
2018-07-20T02:03:03.333Z,99.90
2018-07-20T02:05:32.190Z,99.90
2018-07-20T02:08:01.626Z,99.90
2018-07-20T02:10:30.481Z,99.90
2018-07-20T02:12:59.254Z,99.90
2018-07-20T02:15:28.133Z,99.90
2018-07-20T02:17:57.403Z,99.90
2018-07-20T02:20:26.262Z,99.90
2018-07-20T02:22:55.046Z,99.90
2018-07-20T02:25:23.862Z,99.90
2018-07-20T02:27:52.715Z,99.90
2018-07-20T02:30:22.135Z,99.90
2018-07-20T02:32:51.287Z,99.90
2018-07-20T02:35:20.162Z,99.90
2018-07-20T02:37:49.168Z,99.90
2018-07-20T02:40:18.016Z,99.90
2018-07-20T02:42:46.877Z,99.90
2018-07-20T02:45:15.655Z,99.90
2018-07-20T02:47:44.511Z,99.90
2018-07-20T02:50:13.343Z,99.90
2018-07-20T02:52:42.262Z,99.90
2018-07-20T02:55:17.384Z,99.90
2018-07-20T02:57:46.222Z,99.90
2018-07-20T03:00:15.040Z,99.90
2018-07-20T03:02:43.854Z,99.90
2018-07-20T03:05:12.905Z,99.90
2018-07-20T03:07:42.715Z,99.90
2018-07-20T03:10:11.538Z,99.90
2018-07-20T03:12:40.410Z,99.90
2018-07-20T03:15:09.282Z,99.90
2018-07-20T03:17:39.965Z,99.90
2018-07-20T03:20:10.678Z,99.90
2018-07-20T03:22:39.540Z,99.90
2018-07-20T03:25:09.564Z,99.90
2018-07-20T03:27:38.530Z,99.90
2018-07-20T03:30:07.402Z,99.90
2018-07-20T03:32:36.260Z,99.90
2018-07-20T03:35:05.333Z,99.90
2018-07-20T03:37:34.131Z,99.90
2018-07-20T03:40:03.067Z,99.90
2018-07-20T03:42:32.073Z,99.90
2018-07-20T03:45:00.940Z,99.90
2018-07-20T03:47:29.818Z,99.90
2018-07-20T03:49:58.677Z,99.90
2018-07-20T03:52:27.524Z,99.90
2018-07-20T03:54:56.331Z,99.90
2018-07-20T03:57:25.253Z,99.90
2018-07-20T03:59:54.317Z,99.90
2018-07-20T04:02:24.182Z,99.90
2018-07-20T04:04:52.966Z,99.90
2018-07-20T04:07:22.746Z,99.90
2018-07-20T04:09:51.530Z,99.90
2018-07-20T04:12:20.354Z,99.90
2018-07-20T04:14:49.208Z,99.90
2018-07-20T04:17:18.230Z,99.90
2018-07-20T04:19:47.009Z,99.90
2018-07-20T04:22:18.131Z,99.90
2018-07-20T04:24:47.007Z,99.90
2018-07-20T04:27:15.827Z,99.90
2018-07-20T04:29:44.690Z,99.90
2018-07-20T04:32:13.949Z,99.90
2018-07-20T04:34:42.786Z,99.90
2018-07-20T04:37:12.027Z,99.90
2018-07-20T04:39:40.830Z,99.90
2018-07-20T04:42:10.526Z,99.90
2018-07-20T04:44:39.374Z,99.90
2018-07-20T04:47:08.982Z,99.90
2018-07-20T04:49:38.109Z,99.90
2018-07-20T04:52:06.966Z,99.90
2018-07-20T04:54:35.843Z,99.90
2018-07-20T04:57:04.817Z,99.90
2018-07-20T04:59:33.648Z,99.90
2018-07-20T05:02:02.519Z,99.90
2018-07-20T05:04:32.096Z,99.90
2018-07-20T05:07:02.239Z,99.90
2018-07-20T05:09:31.119Z,99.90
2018-07-20T05:12:00.063Z,99.90
2018-07-20T05:14:30.342Z,99.90
2018-07-20T05:16:59.357Z,99.90
2018-07-20T05:19:29.948Z,99.90
2018-07-20T05:21:59.136Z,99.90
2018-07-20T05:24:29.310Z,99.90
2018-07-20T05:26:58.601Z,99.90
2018-07-20T05:29:27.654Z,99.90
2018-07-20T05:31:56.678Z,99.90
2018-07-20T05:34:25.953Z,99.90
2018-07-20T05:36:55.229Z,99.90
2018-07-20T05:39:25.625Z,99.90
2018-07-20T05:41:54.503Z,99.90
2018-07-20T05:44:23.403Z,97.10
2018-07-20T05:46:52.741Z,94.20
2018-07-20T05:49:21.578Z,94.80
2018-07-20T05:51:50.633Z,92.50
2018-07-20T05:54:19.682Z,92.00
2018-07-20T05:56:49.602Z,91.40
2018-07-20T05:59:21.353Z,90.70
2018-07-20T06:01:50.250Z,90.60
2018-07-20T06:04:19.172Z,90.80
2018-07-20T06:06:48.665Z,90.60
2018-07-20T06:09:17.521Z,90.30
2018-07-20T06:11:46.344Z,90.90
2018-07-20T06:14:15.726Z,90.20
2018-07-20T06:16:44.491Z,90.40
2018-07-20T06:19:13.444Z,90.30
2018-07-20T06:21:42.268Z,89.50
2018-07-20T06:24:11.163Z,89.70
2018-07-20T06:26:42.230Z,88.00
2018-07-20T06:29:11.157Z,86.70
2018-07-20T06:31:39.979Z,87.40
2018-07-20T06:34:08.894Z,87.40
2018-07-20T06:36:39.422Z,87.50
2018-07-20T06:39:10.312Z,86.10
2018-07-20T06:41:51.196Z,86.00
2018-07-20T06:44:27.268Z,86.20
2018-07-20T06:46:56.380Z,89.50
2018-07-20T06:49:25.689Z,90.10
2018-07-20T06:51:55.570Z,90.30
2018-07-20T06:54:24.671Z,90.50
2018-07-20T06:56:53.568Z,90.50
2018-07-20T06:59:23.461Z,89.80
2018-07-20T07:01:52.688Z,90.20
2018-07-20T07:04:23.190Z,89.00
2018-07-20T07:06:58.312Z,86.30
2018-07-20T07:09:27.595Z,86.80
2018-07-20T07:11:56.676Z,86.30
2018-07-20T07:14:25.546Z,87.50
2018-07-20T07:16:55.654Z,87.40
2018-07-20T07:19:24.622Z,86.80
2018-07-20T07:21:55.623Z,87.90
2018-07-20T07:24:30.836Z,87.90
2018-07-20T07:27:00.851Z,87.60
2018-07-20T07:29:31.082Z,84.90
2018-07-20T07:32:00.916Z,83.10
2018-07-20T07:34:31.128Z,82.00
2018-07-20T07:37:02.188Z,81.80
2018-07-20T07:39:31.117Z,80.80
2018-07-20T07:42:01.802Z,81.60
2018-07-20T07:44:30.641Z,81.10
2018-07-20T07:47:00.666Z,80.70
2018-07-20T07:49:29.831Z,79.70
2018-07-20T07:51:59.058Z,81.90
2018-07-20T07:54:28.291Z,82.50
2018-07-20T07:57:02.397Z,81.40
2018-07-20T07:59:32.743Z,81.40
2018-07-20T08:02:05.270Z,82.30
2018-07-20T08:04:34.320Z,81.60
2018-07-20T08:07:04.859Z,80.30
2018-07-20T08:09:34.511Z,79.30
2018-07-20T08:12:04.864Z,77.60
2018-07-20T08:14:34.101Z,76.00
2018-07-20T08:17:03.042Z,75.80
2018-07-20T08:19:32.078Z,74.60
2018-07-20T08:22:01.421Z,73.70
2018-07-20T08:24:30.679Z,72.10
2018-07-20T08:26:59.559Z,74.10
2018-07-20T08:29:29.060Z,73.30
2018-07-20T08:32:05.861Z,70.50
2018-07-20T08:34:34.875Z,70.40
2018-07-20T08:37:03.931Z,70.10
2018-07-20T08:42:01.626Z,71.10
2018-07-20T08:44:31.017Z,69.80
2018-07-20T08:46:59.921Z,68.60
2018-07-20T08:49:39.530Z,67.00
2018-07-20T08:52:10.618Z,66.90
2018-07-20T08:54:43.387Z,67.20
2018-07-20T08:57:15.243Z,67.00
2018-07-20T08:59:45.722Z,66.00
2018-07-20T09:02:14.865Z,66.60
2018-07-20T09:04:44.215Z,65.60
2018-07-20T09:07:13.221Z,65.20
2018-07-20T09:09:42.245Z,64.00
2018-07-20T09:12:11.942Z,66.30
2018-07-20T09:14:41.128Z,66.40
2018-07-20T09:17:13.913Z,65.80
2018-07-20T09:19:44.246Z,65.60
2018-07-20T09:22:36.817Z,63.90
2018-07-20T09:25:06.236Z,64.00
2018-07-20T09:27:35.488Z,63.30
2018-07-20T09:30:07.205Z,64.10
2018-07-20T09:32:36.147Z,62.90
2018-07-20T09:35:05.145Z,62.20
2018-07-20T09:37:34.181Z,63.10
2018-07-20T09:40:03.090Z,62.90
2018-07-20T09:42:31.938Z,62.20
2018-07-20T09:45:01.622Z,63.20
2018-07-20T09:47:30.474Z,64.60
2018-07-20T09:50:01.147Z,63.50
2018-07-20T09:52:30.304Z,64.90
2018-07-20T09:54:59.717Z,67.50
2018-07-20T09:57:29.611Z,66.40
2018-07-20T09:59:59.378Z,66.00
2018-07-20T10:02:29.090Z,67.40
2018-07-20T10:05:00.759Z,67.30
2018-07-20T10:07:31.404Z,67.90
2018-07-20T10:10:00.455Z,68.60
2018-07-20T10:12:31.544Z,65.70
2018-07-20T10:15:00.479Z,63.20
2018-07-20T10:17:29.469Z,63.10
2018-07-20T10:20:00.720Z,62.60
2018-07-20T10:22:33.559Z,60.00
2018-07-20T10:25:03.812Z,58.20
2018-07-20T10:27:32.892Z,59.00
2018-07-20T10:30:04.295Z,58.80
2018-07-20T10:32:33.219Z,59.80
2018-07-20T10:35:05.741Z,60.20
2018-07-20T10:37:34.852Z,56.30
2018-07-20T10:40:05.168Z,59.00
2018-07-20T10:42:34.687Z,57.90
2018-07-20T10:45:04.216Z,57.50
2018-07-20T10:47:33.267Z,59.40
2018-07-20T10:50:03.156Z,59.10
2018-07-20T10:52:34.652Z,59.00
2018-07-20T10:55:03.660Z,55.80
2018-07-20T11:00:01.766Z,56.90
2018-07-20T11:02:31.751Z,58.60
2018-07-20T11:12:31.637Z,59.10
2018-07-20T11:15:01.138Z,57.10
2018-07-20T11:17:37.357Z,55.80
2018-07-20T11:20:07.704Z,56.50
2018-07-20T11:22:40.208Z,57.80
2018-07-20T11:25:11.198Z,58.10
2018-07-20T11:27:44.202Z,57.20
2018-07-20T11:30:15.430Z,57.60
2018-07-20T11:32:45.649Z,57.10
2018-07-20T11:35:16.218Z,55.70
2018-07-20T11:37:49.372Z,55.20
2018-07-20T11:40:20.747Z,54.30
2018-07-20T11:42:51.171Z,55.30
2018-07-20T11:45:21.117Z,54.70
2018-07-20T11:47:53.142Z,56.10
2018-07-20T11:50:38.265Z,57.00
2018-07-20T11:53:07.438Z,55.10
2018-07-20T11:55:36.363Z,56.20
2018-07-20T11:58:05.348Z,56.60
2018-07-20T12:00:34.856Z,57.40
2018-07-20T12:03:04.011Z,59.00
2018-07-20T12:05:33.547Z,59.90
2018-07-20T12:08:05.120Z,59.80
2018-07-20T12:10:35.114Z,60.50
2018-07-20T12:13:04.042Z,61.40
2018-07-20T12:15:32.947Z,62.40
2018-07-20T12:18:01.844Z,62.90
2018-07-20T12:20:30.739Z,61.60
2018-07-20T12:23:06.343Z,62.20
2018-07-20T12:25:38.256Z,62.00
2018-07-20T12:28:11.340Z,62.60
2018-07-20T12:30:40.710Z,61.70
2018-07-20T12:33:10.091Z,61.80
2018-07-20T12:35:39.898Z,61.10
2018-07-20T12:38:14.235Z,62.20
2018-07-20T12:40:43.685Z,60.10
2018-07-20T12:43:12.585Z,60.90
2018-07-20T12:48:16.552Z,59.90
2018-07-20T12:50:46.196Z,59.90
2018-07-20T12:53:16.117Z,61.50
2018-07-20T12:55:45.144Z,63.30
2018-07-20T12:58:14.463Z,63.00
2018-07-20T13:00:44.060Z,60.80
2018-07-20T13:03:15.350Z,61.80
2018-07-20T13:05:44.662Z,62.00
2018-07-20T13:08:15.156Z,61.60
2018-07-20T13:10:43.984Z,60.00
2018-07-20T13:13:13.455Z,60.80
2018-07-20T13:15:43.197Z,60.10
2018-07-20T13:18:13.493Z,61.70
2018-07-20T13:20:42.445Z,59.60
2018-07-20T13:23:12.773Z,60.60
2018-07-20T13:25:43.463Z,60.70
2018-07-20T13:28:13.733Z,63.20
2018-07-20T13:30:43.698Z,61.40
2018-07-20T13:33:12.710Z,62.50
2018-07-20T13:35:45.722Z,61.60
2018-07-20T13:38:14.883Z,62.00
2018-07-20T13:40:44.456Z,62.30
2018-07-20T13:43:14.166Z,63.10
2018-07-20T13:45:45.357Z,62.40
2018-07-20T13:48:14.286Z,62.40
2018-07-20T13:50:45.428Z,62.90
2018-07-20T13:53:14.815Z,63.90
2018-07-20T13:55:44.181Z,62.60
2018-07-20T13:58:14.351Z,62.10
2018-07-20T14:00:44.162Z,62.90
2018-07-20T14:03:15.148Z,61.90
2018-07-20T14:05:45.854Z,61.20
2018-07-20T14:08:17.766Z,60.20
2018-07-20T14:10:49.290Z,60.30
2018-07-20T14:13:22.700Z,60.10
2018-07-20T14:15:53.311Z,62.00
2018-07-20T14:18:22.536Z,60.30
2018-07-20T14:20:53.059Z,60.20
2018-07-20T14:23:22.146Z,59.40
2018-07-20T14:25:52.215Z,59.40
2018-07-20T14:28:21.876Z,59.40
2018-07-20T14:30:57.602Z,61.10
2018-07-20T14:33:30.061Z,61.40
2018-07-20T14:36:00.169Z,60.50
2018-07-20T14:38:32.210Z,61.10
2018-07-20T14:41:08.114Z,60.70
2018-07-20T14:43:37.226Z,60.30
2018-07-20T14:46:06.307Z,59.40
2018-07-20T14:48:35.194Z,60.70
2018-07-20T14:51:04.140Z,60.90
2018-07-20T14:53:33.929Z,59.50
2018-07-20T14:56:03.000Z,60.10
2018-07-20T14:58:34.259Z,61.80
2018-07-20T15:01:03.290Z,59.80
2018-07-20T15:03:32.926Z,60.30
2018-07-20T15:06:04.705Z,60.40
2018-07-20T15:08:34.356Z,61.50
2018-07-20T15:11:04.410Z,61.30
2018-07-20T15:13:35.389Z,61.40
2018-07-20T15:16:04.326Z,64.20
2018-07-20T15:18:33.221Z,64.20
2018-07-20T15:21:02.393Z,63.70
2018-07-20T15:23:32.593Z,63.70
2018-07-20T15:26:03.011Z,62.60
2018-07-20T15:28:32.803Z,62.70
2018-07-20T15:31:01.815Z,62.80
2018-07-20T15:33:32.264Z,63.30
2018-07-20T15:36:01.351Z,64.10
2018-07-20T15:38:30.281Z,64.40
2018-07-20T15:40:59.909Z,62.60
2018-07-20T15:43:28.789Z,64.60
2018-07-20T15:46:05.967Z,64.20
2018-07-20T15:48:29.444Z,65.20
2018-07-20T15:50:59.140Z,63.60
2018-07-20T15:53:37.358Z,62.40
2018-07-20T15:55:58.633Z,64.10
2018-07-20T15:58:28.660Z,62.70
2018-07-20T16:00:57.599Z,62.20
2018-07-20T16:03:28.070Z,61.80
2018-07-20T16:06:02.516Z,63.20
2018-07-20T16:08:31.650Z,61.50
2018-07-20T16:11:01.578Z,63.00
2018-07-20T16:13:32.305Z,63.90
2018-07-20T16:16:02.656Z,63.00
2018-07-20T16:18:33.628Z,62.80
2018-07-20T16:21:02.496Z,62.30
2018-07-20T16:23:33.147Z,62.50
2018-07-20T16:28:32.834Z,63.80
2018-07-20T16:31:01.915Z,62.80
2018-07-20T16:33:30.795Z,64.10
2018-07-20T16:36:00.089Z,64.30
2018-07-20T16:38:30.391Z,64.20
2018-07-20T16:40:59.426Z,63.00
2018-07-20T16:43:29.035Z,63.10
2018-07-20T16:45:58.182Z,62.60
2018-07-20T16:48:27.246Z,62.70
2018-07-20T16:50:57.115Z,62.20
2018-07-20T16:53:26.221Z,63.20
2018-07-20T16:55:55.562Z,62.70
2018-07-20T16:58:25.442Z,64.00
2018-07-20T17:00:55.070Z,63.10
2018-07-20T17:03:24.997Z,63.00
2018-07-20T17:05:54.161Z,63.30
2018-07-20T17:08:23.038Z,63.20
2018-07-20T17:10:57.911Z,63.20
2018-07-20T17:13:26.776Z,63.60
2018-07-20T17:15:55.763Z,63.80
2018-07-20T17:18:24.740Z,63.00
2018-07-20T17:20:54.307Z,64.00
2018-07-20T17:23:24.278Z,63.70
2018-07-20T17:25:54.805Z,63.20
2018-07-20T17:28:23.669Z,63.90
2018-07-20T17:30:54.255Z,63.70
2018-07-20T17:33:24.755Z,64.70
2018-07-20T17:36:02.311Z,65.00
2018-07-20T17:38:31.327Z,64.80
2018-07-20T17:41:02.491Z,64.10
2018-07-20T17:43:31.417Z,64.60
2018-07-20T17:46:01.749Z,64.30
2018-07-20T17:48:33.848Z,64.40
2018-07-20T17:51:05.572Z,64.40
2018-07-20T17:53:34.506Z,65.40
2018-07-20T17:56:03.656Z,64.90
2018-07-20T17:58:38.088Z,65.30
2018-07-20T18:01:07.494Z,65.10
2018-07-20T18:03:36.575Z,64.80
2018-07-20T18:06:06.082Z,64.30
2018-07-20T18:08:35.065Z,65.10
2018-07-20T18:11:04.278Z,65.60
2018-07-20T18:13:33.675Z,65.70
2018-07-20T18:16:04.317Z,66.00
2018-07-20T18:18:33.290Z,65.80
2018-07-20T18:21:02.272Z,66.30
2018-07-20T18:23:31.394Z,66.80
2018-07-20T18:26:00.646Z,67.00
2018-07-20T18:28:29.502Z,67.20
2018-07-20T18:30:59.069Z,66.60
2018-07-20T18:33:28.254Z,66.90
2018-07-20T18:37:19.086Z,67.20
2018-07-20T18:39:49.971Z,67.50
2018-07-20T18:42:25.771Z,68.20
2018-07-20T18:44:55.119Z,68.30
2018-07-20T18:47:24.945Z,68.30
2018-07-20T18:49:53.920Z,68.50
2018-07-20T18:54:54.197Z,68.80
2018-07-20T18:57:24.477Z,68.80
2018-07-20T18:59:53.563Z,69.00
2018-07-20T19:02:26.109Z,70.30
2018-07-20T19:04:57.196Z,72.10
2018-07-20T19:07:26.307Z,72.70
2018-07-20T19:09:56.277Z,73.40
2018-07-20T19:12:25.263Z,74.40
2018-07-20T19:14:55.254Z,74.70
2018-07-20T19:17:25.807Z,74.70
2018-07-20T19:19:55.292Z,74.10
2018-07-20T19:22:30.154Z,74.10
2018-07-20T19:25:00.313Z,74.40
2018-07-20T19:27:30.559Z,76.10
2018-07-20T19:29:59.895Z,75.60
2018-07-20T19:32:30.413Z,76.70
2018-07-20T19:35:00.407Z,76.80
2018-07-20T19:37:31.057Z,76.70
2018-07-20T19:40:01.023Z,76.40
2018-07-20T19:42:31.007Z,77.30
2018-07-20T19:45:00.157Z,77.30
2018-07-20T19:47:32.163Z,76.90
2018-07-20T19:50:02.400Z,76.70
2018-07-20T19:52:31.554Z,76.40
2018-07-20T19:55:03.628Z,75.90
2018-07-20T19:57:33.594Z,75.70
2018-07-20T20:00:04.327Z,76.00
2018-07-20T20:02:34.867Z,75.80
2018-07-20T20:05:06.173Z,75.70
2018-07-20T20:07:36.236Z,75.60
2018-07-20T20:10:05.653Z,75.40
2018-07-20T20:12:35.806Z,75.50
2018-07-20T20:15:05.280Z,75.40
2018-07-20T20:17:35.143Z,75.50
2018-07-20T20:20:04.211Z,75.60
2018-07-20T20:22:35.346Z,75.70
2018-07-20T20:25:04.286Z,76.00
2018-07-20T20:27:33.215Z,76.10
2018-07-20T20:30:03.529Z,76.50
2018-07-20T20:32:33.166Z,76.10
2018-07-20T20:35:02.460Z,76.20
2018-07-20T20:37:37.815Z,76.40
2018-07-20T20:40:07.732Z,76.50
2018-07-20T20:42:36.701Z,76.80
2018-07-20T20:45:08.721Z,76.60
2018-07-20T20:47:39.132Z,76.80
2018-07-20T20:50:12.152Z,76.90
2018-07-20T20:52:41.459Z,76.70
2018-07-20T20:55:13.725Z,76.70
2018-07-20T20:57:43.417Z,77.00
2018-07-20T21:00:12.651Z,76.70
2018-07-20T21:02:45.033Z,76.80
2018-07-20T21:05:14.536Z,76.70
2018-07-20T21:07:44.246Z,76.90
2018-07-20T21:10:14.498Z,76.90
2018-07-20T21:12:44.139Z,76.90
2018-07-20T21:15:14.234Z,77.10
2018-07-20T21:17:45.361Z,77.10
2018-07-20T21:20:14.679Z,77.10
2018-07-20T21:22:44.135Z,76.90
2018-07-20T21:25:16.175Z,77.00
2018-07-20T21:27:46.635Z,76.90
2018-07-20T21:30:15.706Z,76.90
2018-07-20T21:32:45.411Z,76.60
2018-07-20T21:35:16.387Z,76.90
2018-07-20T21:37:47.314Z,77.00
2018-07-20T21:40:17.224Z,77.10
2018-07-20T21:42:47.490Z,76.70
2018-07-20T21:45:18.167Z,77.00
2018-07-20T21:47:50.264Z,77.10
2018-07-20T21:50:26.201Z,77.40
2018-07-20T21:52:56.206Z,77.20
2018-07-20T21:55:25.739Z,77.40
2018-07-20T21:57:55.027Z,77.50
2018-07-20T22:00:26.538Z,77.30
2018-07-20T22:02:57.682Z,77.40
2018-07-20T22:05:28.441Z,77.50
2018-07-20T22:07:57.291Z,77.60
2018-07-20T22:10:27.708Z,77.50
2018-07-20T22:12:56.933Z,77.70
2018-07-20T22:15:26.002Z,77.80
2018-07-20T22:17:55.222Z,77.90
2018-07-20T22:20:25.047Z,77.90
2018-07-20T22:22:54.395Z,78.10
2018-07-20T22:25:23.226Z,78.30
2018-07-20T22:27:53.049Z,78.10
2018-07-20T22:30:23.375Z,78.20
2018-07-20T22:32:53.444Z,78.20
2018-07-20T22:35:25.163Z,78.30
2018-07-20T22:37:57.145Z,78.30
2018-07-20T22:40:27.132Z,78.50
2018-07-20T22:42:56.154Z,78.60
2018-07-20T22:45:25.142Z,78.90
2018-07-20T22:47:56.248Z,78.90
2018-07-20T22:50:25.320Z,79.10
2018-07-20T22:52:54.180Z,79.10
2018-07-20T22:55:23.164Z,79.10
2018-07-20T22:57:52.625Z,79.40
2018-07-20T23:00:22.162Z,79.70
2018-07-20T23:02:51.315Z,79.80
2018-07-20T23:05:20.310Z,79.90
2018-07-20T23:07:50.350Z,79.90
2018-07-20T23:10:19.163Z,80.70
2018-07-20T23:12:48.799Z,80.40
2018-07-20T23:15:17.623Z,80.20
2018-07-20T23:17:48.118Z,80.50
2018-07-20T23:20:17.114Z,80.40
2018-07-20T23:22:46.309Z,80.50
2018-07-20T23:25:15.376Z,80.70
2018-07-20T23:27:44.646Z,80.50
2018-07-20T23:30:13.631Z,80.50
2018-07-20T23:32:44.266Z,80.40
2018-07-20T23:35:13.416Z,80.60
2018-07-20T23:37:42.275Z,80.50
2018-07-20T23:40:12.576Z,80.80
2018-07-20T23:42:43.502Z,80.60
2018-07-20T23:45:13.488Z,80.40
2018-07-20T23:47:42.357Z,80.20
2018-07-20T23:50:11.159Z,80.30
2018-07-20T23:52:39.934Z,80.50
2018-07-20T23:55:10.040Z,80.40
2018-07-20T23:57:39.738Z,80.40
